createdAt,value
2017-07-04T00:01:30.916Z,79.00
2017-07-04T00:03:59.243Z,79.00
2017-07-04T00:06:27.560Z,79.90
2017-07-04T00:08:55.892Z,79.10
2017-07-04T00:11:24.215Z,79.30
2017-07-04T00:13:52.561Z,79.30
2017-07-04T00:16:20.884Z,79.40
2017-07-04T00:18:49.191Z,79.30
2017-07-04T00:21:17.524Z,79.40
2017-07-04T00:23:45.836Z,79.40
2017-07-04T00:26:14.167Z,79.60
2017-07-04T00:28:42.474Z,79.70
2017-07-04T00:31:10.805Z,79.70
2017-07-04T00:33:39.115Z,79.70
2017-07-04T00:36:07.459Z,80.70
2017-07-04T00:38:35.773Z,79.90
2017-07-04T00:41:04.091Z,80.10
2017-07-04T00:43:32.429Z,80.30
2017-07-04T00:46:00.746Z,80.60
2017-07-04T00:48:29.086Z,80.90
2017-07-04T00:50:57.400Z,80.80
2017-07-04T00:53:26.480Z,80.80
2017-07-04T00:55:54.803Z,80.90
2017-07-04T00:58:23.139Z,81.30
2017-07-04T01:00:51.483Z,81.50
2017-07-04T01:03:19.799Z,81.80
2017-07-04T01:05:48.140Z,82.10
2017-07-04T01:08:16.456Z,82.10
2017-07-04T01:10:44.810Z,82.00
2017-07-04T01:13:13.128Z,81.90
2017-07-04T01:15:41.436Z,81.90
2017-07-04T01:18:09.780Z,81.90
2017-07-04T01:20:38.104Z,81.80
2017-07-04T01:23:06.478Z,82.00
2017-07-04T01:25:34.799Z,82.00
2017-07-04T01:28:03.121Z,82.00
2017-07-04T01:30:31.503Z,81.90
2017-07-04T01:32:59.833Z,81.80
2017-07-04T01:35:28.170Z,81.80
2017-07-04T01:37:56.489Z,81.80
2017-07-04T01:40:24.834Z,81.80
2017-07-04T01:42:53.148Z,81.90
2017-07-04T01:45:21.464Z,81.90
2017-07-04T01:47:49.816Z,81.90
2017-07-04T01:50:18.141Z,81.80
2017-07-04T01:52:46.479Z,82.00
2017-07-04T01:55:14.800Z,81.90
2017-07-04T01:57:43.140Z,82.10
2017-07-04T02:00:11.459Z,82.10
2017-07-04T02:02:39.772Z,81.90
2017-07-04T02:05:08.109Z,81.90
2017-07-04T02:07:36.433Z,82.00
2017-07-04T02:10:04.775Z,82.10
2017-07-04T02:12:33.097Z,82.00
2017-07-04T02:15:01.447Z,82.10
2017-07-04T02:17:29.768Z,82.10
2017-07-04T02:19:58.085Z,82.00
2017-07-04T02:22:26.428Z,82.00
2017-07-04T02:24:54.752Z,82.10
2017-07-04T02:27:23.104Z,82.20
2017-07-04T02:29:51.431Z,82.60
2017-07-04T02:32:19.798Z,82.60
2017-07-04T02:34:48.123Z,82.60
2017-07-04T02:37:16.443Z,82.50
2017-07-04T02:39:44.779Z,82.40
2017-07-04T02:42:13.088Z,82.30
2017-07-04T02:44:41.427Z,82.20
2017-07-04T02:47:09.739Z,82.10
2017-07-04T02:49:38.077Z,82.00
2017-07-04T02:52:06.397Z,81.70
2017-07-04T02:54:34.726Z,81.60
2017-07-04T02:57:03.063Z,81.70
2017-07-04T02:59:31.371Z,81.10
2017-07-04T03:01:59.708Z,81.20
2017-07-04T03:04:28.017Z,81.40
2017-07-04T03:06:56.370Z,81.60
2017-07-04T03:09:24.687Z,81.60
2017-07-04T03:11:53.004Z,81.80
2017-07-04T03:14:21.336Z,81.90
2017-07-04T03:16:49.651Z,81.70
2017-07-04T03:19:17.991Z,81.40
2017-07-04T03:21:46.308Z,82.00
2017-07-04T03:24:14.650Z,81.20
2017-07-04T03:26:42.972Z,81.10
2017-07-04T03:29:11.292Z,81.10
2017-07-04T03:31:39.628Z,80.90
2017-07-04T03:34:07.944Z,80.70
2017-07-04T03:36:36.279Z,80.60
2017-07-04T03:39:04.595Z,80.80
2017-07-04T03:41:32.953Z,80.70
2017-07-04T03:44:01.260Z,80.70
2017-07-04T03:46:29.572Z,80.90
2017-07-04T03:48:57.908Z,81.30
2017-07-04T03:51:26.225Z,81.00
2017-07-04T03:53:54.572Z,80.60
2017-07-04T03:56:22.896Z,80.60
2017-07-04T03:58:51.229Z,80.50
2017-07-04T04:01:19.549Z,80.40
2017-07-04T04:03:47.885Z,80.60
2017-07-04T04:06:16.203Z,80.60
2017-07-04T04:08:44.521Z,80.70
2017-07-04T04:11:12.861Z,80.80
2017-07-04T04:13:41.177Z,80.80
2017-07-04T04:16:09.519Z,80.60
2017-07-04T04:18:37.844Z,80.40
2017-07-04T04:21:06.179Z,80.20
2017-07-04T04:23:34.500Z,79.90
2017-07-04T04:26:02.863Z,79.90
2017-07-04T04:28:31.183Z,80.00
2017-07-04T04:30:59.499Z,80.20
2017-07-04T04:33:27.833Z,80.40
2017-07-04T04:35:56.151Z,80.10
2017-07-04T04:38:24.483Z,79.90
2017-07-04T04:40:52.795Z,79.80
2017-07-04T04:43:21.142Z,79.70
2017-07-04T04:45:49.450Z,79.40
2017-07-04T04:48:17.792Z,79.30
2017-07-04T04:50:46.109Z,79.00
2017-07-04T04:53:14.419Z,78.80
2017-07-04T04:55:42.756Z,78.50
2017-07-04T04:58:11.105Z,78.30
2017-07-04T05:00:39.438Z,78.20
2017-07-04T05:03:07.775Z,78.10
2017-07-04T05:05:36.104Z,77.40
2017-07-04T05:08:04.446Z,76.20
2017-07-04T05:10:32.020Z,76.00
2017-07-04T05:13:00.329Z,71.30
2017-07-04T05:15:28.635Z,69.10
2017-07-04T05:17:56.967Z,67.60
2017-07-04T05:20:25.279Z,67.80
2017-07-04T05:22:53.619Z,66.70
2017-07-04T05:25:21.932Z,67.20
2017-07-04T05:27:50.292Z,67.60
2017-07-04T05:30:18.609Z,67.60
2017-07-04T05:32:46.929Z,67.50
2017-07-04T05:35:15.259Z,67.40
2017-07-04T05:37:43.568Z,67.20
2017-07-04T05:40:11.900Z,67.00
2017-07-04T05:42:39.452Z,66.90
2017-07-04T05:45:07.794Z,66.90
2017-07-04T05:47:36.115Z,66.60
2017-07-04T05:50:04.446Z,66.10
2017-07-04T05:52:32.776Z,65.50
2017-07-04T05:55:01.088Z,65.50
2017-07-04T05:57:29.416Z,65.60
2017-07-04T05:59:57.733Z,65.00
2017-07-04T06:02:26.064Z,64.50
2017-07-04T06:04:54.375Z,64.70
2017-07-04T06:07:22.722Z,62.90
2017-07-04T06:09:51.038Z,62.70
2017-07-04T06:12:19.344Z,62.40
2017-07-04T06:14:47.676Z,62.30
2017-07-04T06:17:15.980Z,62.00
2017-07-04T06:19:44.312Z,61.40
2017-07-04T06:22:12.623Z,61.00
2017-07-04T06:24:40.967Z,60.50
2017-07-04T06:27:09.301Z,60.00
2017-07-04T06:29:37.636Z,59.90
2017-07-04T06:32:05.940Z,59.30
2017-07-04T06:34:34.247Z,59.00
2017-07-04T06:37:02.576Z,58.70
2017-07-04T06:39:30.883Z,58.60
2017-07-04T06:41:59.216Z,58.40
2017-07-04T06:44:27.618Z,58.40
2017-07-04T06:46:55.917Z,58.30
2017-07-04T06:49:24.232Z,57.90
2017-07-04T06:51:52.564Z,57.40
2017-07-04T06:54:20.888Z,57.00
2017-07-04T06:56:49.223Z,57.20
2017-07-04T06:59:17.536Z,57.40
2017-07-04T07:01:45.083Z,57.50
2017-07-04T07:04:13.408Z,57.60
2017-07-04T07:06:41.720Z,57.00
2017-07-04T07:09:10.048Z,56.70
2017-07-04T07:11:38.372Z,56.80
2017-07-04T07:14:06.704Z,56.30
2017-07-04T07:16:35.014Z,56.10
2017-07-04T07:19:03.355Z,56.00
2017-07-04T07:21:31.667Z,56.60
2017-07-04T07:23:59.976Z,55.70
2017-07-04T07:26:28.302Z,55.20
2017-07-04T07:28:56.613Z,54.90
2017-07-04T07:31:24.945Z,54.80
2017-07-04T07:33:53.265Z,54.60
2017-07-04T07:36:21.597Z,54.60
2017-07-04T07:38:49.910Z,54.00
2017-07-04T07:41:18.250Z,53.50
2017-07-04T07:43:46.559Z,53.10
2017-07-04T07:46:14.873Z,53.00
2017-07-04T07:48:43.207Z,52.30
2017-07-04T07:51:11.523Z,51.90
2017-07-04T07:53:39.859Z,52.10
2017-07-04T07:56:08.173Z,51.60
2017-07-04T07:58:36.515Z,51.80
2017-07-04T08:01:04.840Z,52.10
2017-07-04T08:03:33.176Z,51.90
2017-07-04T08:06:01.483Z,51.30
2017-07-04T08:08:29.796Z,51.30
2017-07-04T08:10:58.126Z,49.90
2017-07-04T08:13:26.440Z,50.20
2017-07-04T08:15:54.772Z,50.10
2017-07-04T08:18:23.087Z,49.90
2017-07-04T08:20:50.651Z,49.90
2017-07-04T08:23:19.000Z,49.10
2017-07-04T08:25:47.351Z,48.50
2017-07-04T08:28:14.897Z,48.60
2017-07-04T08:30:43.203Z,48.20
2017-07-04T08:33:11.539Z,47.80
2017-07-04T08:35:39.847Z,48.40
2017-07-04T08:38:08.177Z,47.80
2017-07-04T08:40:36.498Z,47.50
2017-07-04T08:43:04.835Z,47.20
2017-07-04T08:45:33.148Z,46.90
2017-07-04T08:48:01.519Z,46.10
2017-07-04T08:50:29.832Z,45.10
2017-07-04T08:52:58.143Z,44.60
2017-07-04T08:55:26.476Z,44.50
2017-07-04T08:57:54.800Z,44.40
2017-07-04T09:00:23.139Z,43.80
2017-07-04T09:02:50.690Z,43.80
2017-07-04T09:05:19.025Z,43.30
2017-07-04T09:07:47.346Z,43.80
2017-07-04T09:10:15.694Z,43.90
2017-07-04T09:12:43.262Z,43.90
2017-07-04T09:15:11.583Z,44.00
2017-07-04T09:17:39.936Z,44.40
2017-07-04T09:20:08.251Z,44.60
2017-07-04T09:22:36.594Z,44.10
2017-07-04T09:25:04.911Z,43.00
2017-07-04T09:27:33.247Z,42.50
2017-07-04T09:30:01.551Z,43.50
2017-07-04T09:32:29.121Z,43.50
2017-07-04T09:34:57.428Z,43.20
2017-07-04T09:37:25.745Z,42.80
2017-07-04T09:39:54.077Z,43.10
2017-07-04T09:42:22.392Z,42.60
2017-07-04T09:44:50.727Z,41.30
2017-07-04T09:47:19.036Z,39.90
2017-07-04T09:49:47.371Z,39.60
2017-07-04T09:52:15.690Z,40.80
2017-07-04T09:54:44.024Z,39.60
2017-07-04T09:57:12.338Z,39.60
2017-07-04T09:59:40.648Z,39.90
2017-07-04T10:02:08.975Z,40.00
2017-07-04T10:04:37.293Z,40.30
2017-07-04T10:07:05.624Z,40.80
2017-07-04T10:09:33.933Z,41.10
2017-07-04T10:12:02.306Z,41.20
2017-07-04T10:14:30.611Z,40.40
2017-07-04T10:16:58.966Z,40.50
2017-07-04T10:19:27.277Z,41.20
2017-07-04T10:21:55.597Z,40.60
2017-07-04T10:24:23.926Z,40.50
2017-07-04T10:26:52.235Z,40.30
2017-07-04T10:29:20.573Z,40.20
2017-07-04T10:31:48.882Z,40.10
2017-07-04T10:34:17.205Z,38.50
2017-07-04T10:36:45.512Z,38.20
2017-07-04T10:39:13.850Z,38.30
2017-07-04T10:41:42.172Z,37.90
2017-07-04T10:44:10.482Z,37.60
2017-07-04T10:46:38.823Z,36.60
2017-07-04T10:49:07.150Z,36.40
2017-07-04T10:51:35.484Z,37.00
2017-07-04T10:54:03.805Z,37.50
2017-07-04T10:56:32.140Z,39.10
2017-07-04T10:59:00.455Z,38.80
2017-07-04T11:01:28.789Z,38.30
2017-07-04T11:03:57.122Z,38.50
2017-07-04T11:06:24.668Z,38.50
2017-07-04T11:08:53.018Z,39.30
2017-07-04T11:11:20.564Z,39.30
2017-07-04T11:13:48.909Z,37.80
2017-07-04T11:16:17.217Z,37.00
2017-07-04T11:18:45.561Z,36.30
2017-07-04T11:21:13.872Z,35.90
2017-07-04T11:23:42.223Z,35.20
2017-07-04T11:26:10.540Z,35.30
2017-07-04T11:28:38.853Z,36.10
2017-07-04T11:31:07.184Z,37.00
2017-07-04T11:33:35.499Z,37.40
2017-07-04T11:36:03.830Z,37.40
2017-07-04T11:38:32.160Z,37.40
2017-07-04T11:41:00.495Z,37.60
2017-07-04T11:43:28.823Z,37.30
2017-07-04T11:45:57.157Z,37.20
2017-07-04T11:48:25.761Z,37.60
2017-07-04T11:50:54.108Z,37.20
2017-07-04T11:53:22.432Z,36.70
2017-07-04T11:55:50.745Z,36.90
2017-07-04T11:58:19.079Z,36.70
2017-07-04T12:00:47.390Z,36.50
2017-07-04T12:03:15.731Z,35.60
2017-07-04T12:05:44.041Z,36.30
2017-07-04T12:08:12.417Z,37.10
2017-07-04T12:10:40.731Z,37.00
2017-07-04T12:13:09.097Z,37.20
2017-07-04T12:15:37.405Z,37.60
2017-07-04T12:18:05.747Z,37.50
2017-07-04T12:20:34.063Z,37.40
2017-07-04T12:23:02.377Z,37.10
2017-07-04T12:25:30.708Z,36.90
2017-07-04T12:27:59.023Z,36.60
2017-07-04T12:30:27.374Z,35.40
2017-07-04T12:32:55.687Z,36.00
2017-07-04T12:35:24.016Z,35.80
2017-07-04T12:37:52.332Z,36.10
2017-07-04T12:40:19.910Z,36.10
2017-07-04T12:42:48.215Z,36.60
2017-07-04T12:45:16.528Z,36.80
2017-07-04T12:47:44.886Z,36.60
2017-07-04T12:50:13.201Z,36.20
2017-07-04T12:52:41.537Z,35.90
2017-07-04T12:55:09.853Z,35.20
2017-07-04T12:57:38.187Z,35.00
2017-07-04T13:00:06.516Z,34.50
2017-07-04T13:02:34.857Z,35.20
2017-07-04T13:05:03.163Z,36.00
2017-07-04T13:07:31.484Z,36.80
2017-07-04T13:09:59.817Z,37.30
2017-07-04T13:12:28.140Z,37.10
2017-07-04T13:14:56.522Z,37.40
2017-07-04T13:17:24.847Z,37.70
2017-07-04T13:19:53.181Z,38.00
2017-07-04T13:22:21.502Z,38.10
2017-07-04T13:24:49.841Z,38.80
2017-07-04T13:27:18.156Z,38.30
2017-07-04T13:29:46.459Z,38.70
2017-07-04T13:32:14.837Z,38.80
2017-07-04T13:34:43.153Z,38.70
2017-07-04T13:37:11.489Z,39.10
2017-07-04T13:39:39.801Z,37.60
2017-07-04T13:42:08.138Z,37.80
2017-07-04T13:44:36.456Z,36.30
2017-07-04T13:47:04.797Z,37.00
2017-07-04T13:49:33.103Z,37.70
2017-07-04T13:52:01.481Z,38.40
2017-07-04T13:54:29.799Z,38.60
2017-07-04T13:56:58.117Z,38.20
2017-07-04T13:59:26.467Z,37.20
2017-07-04T14:01:54.780Z,36.60
2017-07-04T14:04:23.139Z,35.90
2017-07-04T14:06:51.504Z,35.40
2017-07-04T14:09:19.842Z,34.00
2017-07-04T14:11:48.172Z,34.10
2017-07-04T14:14:16.486Z,34.10
2017-07-04T14:16:44.840Z,34.00
2017-07-04T14:19:13.146Z,33.50
2017-07-04T14:21:41.485Z,33.10
2017-07-04T14:24:09.838Z,33.40
2017-07-04T14:26:38.180Z,33.10
2017-07-04T14:29:06.492Z,33.10
2017-07-04T14:31:34.800Z,33.50
2017-07-04T14:34:03.136Z,33.40
2017-07-04T14:36:31.462Z,33.30
2017-07-04T14:38:59.807Z,33.30
2017-07-04T14:41:28.125Z,33.70
2017-07-04T14:43:56.470Z,33.00
2017-07-04T14:46:24.786Z,32.40
2017-07-04T14:48:53.133Z,32.90
2017-07-04T14:51:21.497Z,33.60
2017-07-04T14:53:49.818Z,34.60
2017-07-04T14:56:18.179Z,34.20
2017-07-04T14:58:46.492Z,34.90
2017-07-04T15:01:14.834Z,36.10
2017-07-04T15:03:43.148Z,36.60
2017-07-04T15:06:12.518Z,37.50
2017-07-04T15:08:40.826Z,38.50
2017-07-04T15:11:08.446Z,38.50
2017-07-04T15:13:36.884Z,39.00
2017-07-04T15:16:06.201Z,39.60
2017-07-04T15:18:34.536Z,39.70
2017-07-04T15:21:02.857Z,39.60
2017-07-04T15:23:31.187Z,40.20
2017-07-04T15:25:59.516Z,40.40
2017-07-04T15:28:27.892Z,40.60
2017-07-04T15:30:56.272Z,40.80
2017-07-04T15:33:24.611Z,41.10
2017-07-04T15:35:52.924Z,41.50
2017-07-04T15:38:20.476Z,41.50
2017-07-04T15:40:49.801Z,40.90
2017-07-04T15:43:18.112Z,40.90
2017-07-04T15:45:46.441Z,40.60
2017-07-04T15:48:14.760Z,40.80
2017-07-04T15:50:43.113Z,41.30
2017-07-04T15:53:11.424Z,40.80
2017-07-04T15:55:39.786Z,40.40
2017-07-04T15:58:07.332Z,40.40
2017-07-04T16:00:35.672Z,39.00
2017-07-04T16:03:04.007Z,38.90
2017-07-04T16:05:32.341Z,38.70
2017-07-04T16:08:00.680Z,38.10
2017-07-04T16:10:28.991Z,38.80
2017-07-04T16:12:57.321Z,38.60
2017-07-04T16:15:25.649Z,37.90
2017-07-04T16:17:53.965Z,37.70
2017-07-04T16:20:22.319Z,38.50
2017-07-04T16:22:50.628Z,39.10
2017-07-04T16:25:18.971Z,39.20
2017-07-04T16:27:47.282Z,38.90
2017-07-04T16:30:15.633Z,39.00
2017-07-04T16:32:43.956Z,39.40
2017-07-04T16:35:12.272Z,39.80
2017-07-04T16:37:40.616Z,40.10
2017-07-04T16:40:08.944Z,39.50
2017-07-04T16:42:37.285Z,39.20
2017-07-04T16:45:05.603Z,39.70
2017-07-04T16:47:33.953Z,39.90
2017-07-04T16:50:02.268Z,39.60
2017-07-04T16:52:30.629Z,40.20
2017-07-04T16:54:58.948Z,40.00
2017-07-04T16:57:27.266Z,40.00
2017-07-04T16:59:55.608Z,39.90
2017-07-04T17:02:23.156Z,39.90
2017-07-04T17:04:51.485Z,39.00
2017-07-04T17:07:19.792Z,38.30
2017-07-04T17:09:48.134Z,37.60
2017-07-04T17:12:16.448Z,37.60
2017-07-04T17:14:44.793Z,36.80
2017-07-04T17:17:13.110Z,34.60
2017-07-04T17:19:41.417Z,33.00
2017-07-04T17:22:09.757Z,31.60
2017-07-04T17:24:38.077Z,30.50
2017-07-04T17:27:06.419Z,30.00
2017-07-04T17:29:34.736Z,29.80
2017-07-04T17:32:03.077Z,28.30
2017-07-04T17:34:31.395Z,28.50
2017-07-04T17:36:59.738Z,28.70
2017-07-04T17:39:28.058Z,29.00
2017-07-04T17:41:56.380Z,28.50
2017-07-04T17:44:24.714Z,27.80
2017-07-04T17:46:53.037Z,27.00
2017-07-04T17:49:21.366Z,26.70
2017-07-04T17:51:49.745Z,26.70
2017-07-04T17:54:18.084Z,26.20
2017-07-04T17:56:46.532Z,27.30
2017-07-04T17:59:14.873Z,28.00
2017-07-04T18:01:43.255Z,29.10
2017-07-04T18:04:11.569Z,31.30
2017-07-04T18:06:39.929Z,33.20
2017-07-04T18:09:08.244Z,35.50
2017-07-04T18:11:35.822Z,35.50
2017-07-04T18:14:04.140Z,34.60
2017-07-04T18:16:32.528Z,32.80
2017-07-04T18:19:00.846Z,31.60
2017-07-04T18:21:29.200Z,30.90
2017-07-04T18:23:57.560Z,30.20
2017-07-04T18:26:25.950Z,30.40
2017-07-04T18:28:54.287Z,30.70
2017-07-04T18:31:22.672Z,30.60
2017-07-04T18:33:51.000Z,31.40
2017-07-04T18:36:19.349Z,32.30
2017-07-04T18:38:47.721Z,33.60
2017-07-04T18:41:16.033Z,35.10
2017-07-04T18:43:44.375Z,37.90
2017-07-04T18:46:12.703Z,38.60
2017-07-04T18:48:41.040Z,40.00
2017-07-04T18:51:09.377Z,41.30
2017-07-04T18:53:37.699Z,43.20
2017-07-04T18:56:06.044Z,43.80
2017-07-04T18:58:34.363Z,45.00
2017-07-04T19:01:02.734Z,45.60
2017-07-04T19:03:31.065Z,46.60
2017-07-04T19:05:59.426Z,46.90
2017-07-04T19:08:27.746Z,47.50
2017-07-04T19:10:56.060Z,47.40
2017-07-04T19:13:24.729Z,48.30
2017-07-04T19:15:53.038Z,48.90
2017-07-04T19:18:21.368Z,49.60
2017-07-04T19:20:49.677Z,50.70
2017-07-04T19:23:18.059Z,51.00
2017-07-04T19:25:46.390Z,51.40
2017-07-04T19:28:14.729Z,52.20
2017-07-04T19:30:42.295Z,52.20
2017-07-04T19:33:10.678Z,53.70
2017-07-04T19:35:39.037Z,55.60
2017-07-04T19:38:07.396Z,56.20
2017-07-04T19:40:35.776Z,56.30
2017-07-04T19:43:04.227Z,55.70
2017-07-04T19:45:32.618Z,56.10
2017-07-04T19:48:00.931Z,56.60
2017-07-04T19:50:29.285Z,57.30
2017-07-04T19:52:57.599Z,57.80
2017-07-04T19:55:25.945Z,58.50
2017-07-04T19:57:54.278Z,60.00
2017-07-04T20:00:22.661Z,60.00
2017-07-04T20:02:51.172Z,59.80
2017-07-04T20:05:19.571Z,60.20
2017-07-04T20:07:47.144Z,60.20
2017-07-04T20:10:15.453Z,60.80
2017-07-04T20:12:43.815Z,61.90
2017-07-04T20:15:12.124Z,63.70
2017-07-04T20:17:40.447Z,62.70
2017-07-04T20:20:08.787Z,63.10
2017-07-04T20:22:37.099Z,63.20
2017-07-04T20:25:05.432Z,63.90
2017-07-04T20:27:33.749Z,64.50
2017-07-04T20:30:02.097Z,65.00
2017-07-04T20:32:30.413Z,65.60
2017-07-04T20:34:58.778Z,66.00
2017-07-04T20:37:27.101Z,66.30
2017-07-04T20:39:55.424Z,66.30
2017-07-04T20:42:23.763Z,67.10
2017-07-04T20:44:52.083Z,67.00
2017-07-04T20:47:19.669Z,67.00
2017-07-04T20:49:47.987Z,67.80
2017-07-04T20:52:16.325Z,68.60
2017-07-04T20:54:44.649Z,69.00
2017-07-04T20:57:12.997Z,69.10
2017-07-04T20:59:41.318Z,69.10
2017-07-04T21:02:09.648Z,69.40
2017-07-04T21:04:37.998Z,70.10
2017-07-04T21:07:06.321Z,70.60
2017-07-04T21:09:34.657Z,70.90
2017-07-04T21:12:02.981Z,71.20
2017-07-04T21:14:31.320Z,71.60
2017-07-04T21:16:59.635Z,71.60
2017-07-04T21:19:27.973Z,71.90
2017-07-04T21:21:56.292Z,72.40
2017-07-04T21:24:24.613Z,72.70
2017-07-04T21:26:52.958Z,73.10
2017-07-04T21:29:21.302Z,73.50
2017-07-04T21:31:49.637Z,73.90
2017-07-04T21:34:17.952Z,74.20
2017-07-04T21:36:46.297Z,74.70
2017-07-04T21:39:14.619Z,75.20
2017-07-04T21:41:42.963Z,75.30
2017-07-04T21:44:11.277Z,75.30
2017-07-04T21:46:39.602Z,75.20
2017-07-04T21:49:07.945Z,75.10
2017-07-04T21:51:36.268Z,75.00
2017-07-04T21:54:04.613Z,76.10
2017-07-04T21:56:32.931Z,75.60
2017-07-04T21:59:01.274Z,75.80
2017-07-04T22:01:29.616Z,75.60
2017-07-04T22:03:57.972Z,76.70
2017-07-04T22:06:26.288Z,76.10
2017-07-04T22:08:54.608Z,76.20
2017-07-04T22:11:22.940Z,76.50
2017-07-04T22:13:51.260Z,76.50
2017-07-04T22:16:18.829Z,76.50
2017-07-04T22:18:47.157Z,76.80
2017-07-04T22:21:15.497Z,76.80
2017-07-04T22:23:43.820Z,77.80
2017-07-04T22:26:12.161Z,77.20
2017-07-04T22:28:40.468Z,77.20
2017-07-04T22:31:08.792Z,77.50
2017-07-04T22:33:37.144Z,77.50
2017-07-04T22:36:13.762Z,77.70
2017-07-04T22:38:42.110Z,78.10
2017-07-04T22:41:10.440Z,78.30
2017-07-04T22:43:38.783Z,78.40
2017-07-04T22:46:07.091Z,78.40
2017-07-04T22:48:35.422Z,78.50
2017-07-04T22:51:03.750Z,78.70
2017-07-04T22:53:32.080Z,78.70
2017-07-04T22:56:00.388Z,78.80
2017-07-04T22:58:28.700Z,79.00
2017-07-04T23:00:57.028Z,79.10
2017-07-04T23:03:25.847Z,79.40
2017-07-04T23:05:54.184Z,79.10
2017-07-04T23:08:22.506Z,79.20
2017-07-04T23:10:50.853Z,79.30
2017-07-04T23:13:19.164Z,79.30
2017-07-04T23:15:47.488Z,79.40
2017-07-04T23:18:15.807Z,79.40
2017-07-04T23:20:44.146Z,79.50
2017-07-04T23:23:12.465Z,79.50
2017-07-04T23:25:40.772Z,79.40
2017-07-04T23:28:09.106Z,79.50
2017-07-04T23:30:37.416Z,79.70
2017-07-04T23:33:05.751Z,79.60
2017-07-04T23:35:34.068Z,79.70
2017-07-04T23:38:02.408Z,79.60
2017-07-04T23:40:30.723Z,79.70
2017-07-04T23:42:59.062Z,79.70
2017-07-04T23:45:27.371Z,79.90
2017-07-04T23:47:55.732Z,80.10
2017-07-04T23:50:24.040Z,80.10
2017-07-04T23:52:52.348Z,80.10
2017-07-04T23:55:20.677Z,80.10
2017-07-04T23:57:48.992Z,80.30
